Hlavní strana
METAR-TAF:

METAR-TAF

Letiště :

Stockholm, Švédsko

zeměpisná šířka: 59-21N, zeměpisná délka: 017-57E, výška: 14 m

Aktuální stav počasí

Zpráva byla vytvořena před 33 minutami, v 17:50 UTC
Západní vítr 9 kt
Teplota -5°C
Vlhkost vzduchu 79%
Tlak 1005 hPa
Viditelnost 10 km a více
Žádná oblačnost pod 1500 m, nevyskytují se cumulonimby.

METAR: ESSB 181750Z 26009KT CAVOK M05/M08 Q1005 R12/19//72

Čas: 19:23 (18:23 UTC)

Předpověď počasí

Zpráva byla vytvořena před 53 minutami, v 17:30 UTC
Předpověď platná od 18 v 18 UTC do 18 v 21 UTC
Západní vítr 9 kt
Viditelnost 10 km a více
Žádná oblačnost pod 1500 m, nevyskytují se cumulonimby.

TAF: ESSB 181730Z 1818/1821 27009KT CAVOK

Stav a předpovědi počasí z více než 4 000 letišť (zprávy METAR a TAF).

Červené a žluté tečky na mapě představují dostupné meteorologické stanice.

Když kurzor umístíte na tečku, zobrazí se název stanice.

Pak kliknutím zobrazíte stav a předpověď počasí.

Chcete-li změnit mapu, kliknutím na zelené tlačítko se znaménkem +mapu přiblížíte, kliknutím na zelené tlačítko se znaménkem – mapu oddálíte a kliknutím na zelené šipky přejdete na sousední mapy.


METAR-TAF: